Time;durP1;ratioP1;P1;durP2;ratioP2;P2;SDS_P1;SDS_P2;PMS_P1;PMS_P2;Temp;Humidity;BMP_temperature;BMP_pressure;BME280_temperature;BME280_humidity;BME280_pressure;Samples;Min_cycle;Max_cycle;Signal;HPM_P1;HPM_P2
2023/05/25 00:00:11;;;;;;;25.13;6.47;;;14.80;99.90;;;;;;6282453;22;20429;-93
2023/05/25 00:02:38;;;;;;;13.23;6.35;;;14.80;99.90;;;;;;6292181;22;20073;-92
2023/05/25 00:05:06;;;;;;;20.83;6.95;;;14.80;99.90;;;;;;6302080;22;20003;-92
2023/05/25 00:07:32;;;;;;;19.30;7.45;;;14.90;99.90;;;;;;6304614;22;20010;-94
2023/05/25 00:09:58;;;;;;;14.57;6.50;;;14.90;99.90;;;;;;6300370;22;19999;-92
2023/05/25 00:12:24;;;;;;;20.65;6.35;;;14.90;99.90;;;;;;6303487;22;20026;-92
2023/05/25 00:14:49;;;;;;;17.05;6.22;;;14.80;99.90;;;;;;6301142;22;20011;-93
2023/05/25 00:17:17;;;;;;;16.02;6.47;;;14.80;99.90;;;;;;6329193;22;20003;-92
2023/05/25 00:19:43;;;;;;;24.00;6.43;;;14.70;99.90;;;;;;6294675;22;20015;-92
2023/05/25 00:22:10;;;;;;;19.40;6.18;;;14.70;99.90;;;;;;6281731;22;20058;-91
2023/05/25 00:24:38;;;;;;;15.50;5.95;;;14.70;99.90;;;;;;6281667;22;20003;-92
2023/05/25 00:27:03;;;;;;;18.40;6.75;;;14.70;99.90;;;;;;6296880;22;20145;-93
2023/05/25 00:29:29;;;;;;;16.58;6.38;;;14.70;99.90;;;;;;6280622;22;20003;-93
2023/05/25 00:31:55;;;;;;;20.80;6.68;;;14.70;99.90;;;;;;6306592;22;20018;-94
2023/05/25 00:34:21;;;;;;;16.65;6.32;;;14.70;99.90;;;;;;6280941;22;20022;-93
2023/05/25 00:36:47;;;;;;;18.70;5.82;;;14.70;99.90;;;;;;6286764;22;20053;-93
2023/05/25 00:39:17;;;;;;;17.95;6.07;;;14.70;99.90;;;;;;6307767;22;20003;-93
2023/05/25 00:41:44;;;;;;;19.10;6.35;;;14.70;99.90;;;;;;6282934;22;20007;-94
2023/05/25 00:44:13;;;;;;;14.02;6.03;;;14.60;99.90;;;;;;6282370;22;20008;-94
2023/05/25 00:46:44;;;;;;;11.35;5.68;;;14.60;99.90;;;;;;6282067;22;20031;-93
2023/05/25 00:49:13;;;;;;;20.48;6.63;;;14.50;99.90;;;;;;6308166;22;20446;-94
2023/05/25 00:51:40;;;;;;;16.80;6.57;;;14.50;99.90;;;;;;6281773;22;20011;-93
2023/05/25 00:54:06;;;;;;;15.98;6.28;;;14.50;99.90;;;;;;6281737;22;20113;-92
2023/05/25 00:56:37;;;;;;;18.23;7.05;;;14.40;99.90;;;;;;6282636;22;19999;-92
2023/05/25 00:59:05;;;;;;;;;;;14.40;99.90;;;;;;6283058;22;20451;-93
2023/05/25 01:01:38;;;;;;;15.50;6.63;;;14.40;99.90;;;;;;6297320;22;19990;-92
2023/05/25 01:04:08;;;;;;;11.55;5.60;;;14.50;99.90;;;;;;6309238;22;19996;-92
2023/05/25 01:06:38;;;;;;;15.80;7.45;;;14.50;99.90;;;;;;6308058;22;20003;-91
2023/05/25 01:09:05;;;;;;;17.73;7.03;;;14.50;99.90;;;;;;6282340;22;20007;-92
2023/05/25 01:11:35;;;;;;;20.98;5.93;;;14.50;99.90;;;;;;6308720;22;20004;-93
2023/05/25 01:14:01;;;;;;;19.98;6.15;;;14.50;99.90;;;;;;6282594;22;20031;-91
2023/05/25 01:16:28;;;;;;;15.63;6.00;;;14.50;99.90;;;;;;6307355;22;20098;-90
2023/05/25 01:18:54;;;;;;;13.13;6.05;;;14.50;99.90;;;;;;6281369;22;20000;-93
2023/05/25 01:21:20;;;;;;;17.42;6.32;;;14.40;99.90;;;;;;6281947;22;20061;-92
2023/05/25 01:23:52;;;;;;;13.63;6.60;;;14.40;99.90;;;;;;6282334;22;20030;-93
2023/05/25 01:26:22;;;;;;;16.20;6.32;;;14.40;99.90;;;;;;6307491;22;20003;-91
2023/05/25 01:28:52;;;;;;;12.48;6.15;;;14.40;99.90;;;;;;6282150;22;20110;-92
2023/05/25 01:31:21;;;;;;;16.77;6.93;;;14.40;99.90;;;;;;6282198;22;20003;-91
2023/05/25 01:33:51;;;;;;;14.45;6.40;;;14.30;99.90;;;;;;6281399;22;20011;-92
2023/05/25 01:36:18;;;;;;;17.73;7.00;;;14.30;99.90;;;;;;6307930;22;20430;-90
2023/05/25 01:38:44;;;;;;;18.75;6.18;;;14.30;99.90;;;;;;6309405;22;20091;-91
2023/05/25 01:41:10;;;;;;;14.02;6.15;;;14.30;99.90;;;;;;6283167;22;20323;-90
2023/05/25 01:43:35;;;;;;;14.55;6.40;;;14.30;99.90;;;;;;6283033;22;20035;-91
2023/05/25 01:46:31;;;;;;;10.82;5.95;;;14.30;99.90;;;;;;6309092;22;20425;-90
2023/05/25 01:49:20;;;;;;;17.23;6.38;;;14.30;99.90;;;;;;6292573;22;20007;-89
2023/05/25 01:52:07;;;;;;;15.95;6.13;;;14.30;99.90;;;;;;6281961;22;20007;-90
2023/05/25 01:54:39;;;;;;;17.20;6.43;;;14.20;99.90;;;;;;6307364;22;20018;-90
2023/05/25 01:57:13;;;;;;;17.08;6.50;;;14.20;99.90;;;;;;6284670;22;20018;-91
2023/05/25 01:59:42;;;;;;;17.95;6.65;;;14.20;99.90;;;;;;6321159;22;19999;-92
2023/05/25 02:02:16;;;;;;;22.00;6.15;;;14.20;99.90;;;;;;6282883;22;20027;-91
2023/05/25 02:04:43;;;;;;;16.58;6.20;;;14.30;99.90;;;;;;6307868;22;20338;-90
2023/05/25 02:07:08;;;;;;;19.08;6.38;;;14.30;99.90;;;;;;6295254;22;19999;-90
2023/05/25 02:09:34;;;;;;;16.98;6.82;;;14.30;99.90;;;;;;6280691;22;20007;-90
2023/05/25 02:12:00;;;;;;;16.77;6.18;;;14.30;99.90;;;;;;6280701;22;20003;-91
2023/05/25 02:14:25;;;;;;;14.40;5.97;;;14.30;99.90;;;;;;6280909;22;20011;-92
2023/05/25 02:16:51;;;;;;;14.60;5.82;;;14.30;99.90;;;;;;6281455;22;20010;-91
2023/05/25 02:19:17;;;;;;;14.10;5.57;;;14.30;99.90;;;;;;6308436;22;20018;-91
2023/05/25 02:21:42;;;;;;;14.32;6.30;;;14.30;99.90;;;;;;6308447;22;20059;-91
2023/05/25 02:24:09;;;;;;;17.02;6.22;;;14.30;99.90;;;;;;6282476;22;20438;-92
2023/05/25 02:26:36;;;;;;;19.00;5.97;;;14.20;99.90;;;;;;6282409;22;20109;-92
2023/05/25 02:29:02;;;;;;;18.38;6.70;;;14.20;99.90;;;;;;6282454;22;20505;-92
2023/05/25 02:31:28;;;;;;;14.57;6.65;;;14.10;99.90;;;;;;6293976;22;20010;-92
2023/05/25 02:33:55;;;;;;;16.92;6.05;;;14.10;99.90;;;;;;6281883;22;20338;-92
2023/05/25 02:36:21;;;;;;;15.32;6.00;;;14.10;99.90;;;;;;6281754;22;20000;-91
2023/05/25 02:38:48;;;;;;;11.73;5.63;;;14.10;99.90;;;;;;6282015;22;20137;-91
2023/05/25 02:41:15;;;;;;;18.27;5.75;;;14.10;99.90;;;;;;6282031;22;20010;-91
2023/05/25 02:43:40;;;;;;;18.77;6.80;;;14.10;99.90;;;;;;6281998;22;20449;-92
2023/05/25 02:46:06;;;;;;;14.13;6.63;;;14.10;99.90;;;;;;6307347;22;20007;-91
2023/05/25 02:48:32;;;;;;;14.68;5.75;;;14.10;99.90;;;;;;6307652;22;20423;-92
2023/05/25 02:50:58;;;;;;;16.83;5.95;;;14.20;99.90;;;;;;6281736;22;20007;-92
2023/05/25 02:53:23;;;;;;;20.83;6.05;;;14.10;99.90;;;;;;6307637;22;20000;-92
2023/05/25 02:55:49;;;;;;;15.93;5.75;;;14.10;99.90;;;;;;6307834;22;20003;-91
2023/05/25 02:58:15;;;;;;;15.75;6.20;;;14.10;99.90;;;;;;6307801;22;20090;-92
2023/05/25 03:00:41;;;;;;;16.98;6.65;;;14.10;99.90;;;;;;6281446;22;20012;-92
2023/05/25 03:03:07;;;;;;;17.15;6.03;;;14.10;99.90;;;;;;6285429;22;20007;-91
2023/05/25 03:05:34;;;;;;;14.20;6.07;;;14.10;99.90;;;;;;6308991;22;20065;-92
2023/05/25 03:08:00;;;;;;;19.48;6.55;;;14.10;99.90;;;;;;6282621;22;20017;-91
2023/05/25 03:10:26;;;;;;;15.40;5.63;;;14.20;99.90;;;;;;6283110;22;20462;-92
2023/05/25 03:12:51;;;;;;;15.98;6.38;;;14.10;99.90;;;;;;6281842;22;20004;-90
2023/05/25 03:15:17;;;;;;;16.73;5.75;;;14.20;99.90;;;;;;6281645;22;20011;-90
2023/05/25 03:17:43;;;;;;;13.68;6.25;;;14.20;99.90;;;;;;6282482;22;20061;-90
2023/05/25 03:20:09;;;;;;;12.90;6.50;;;14.20;99.90;;;;;;6282198;22;20003;-91
2023/05/25 03:22:35;;;;;;;13.35;5.60;;;14.20;99.90;;;;;;6291130;22;19999;-91
2023/05/25 03:25:02;;;;;;;14.27;6.03;;;14.20;99.90;;;;;;6283413;22;20025;-91
2023/05/25 03:27:27;;;;;;;13.82;6.07;;;14.20;99.90;;;;;;6308451;22;20019;-91
2023/05/25 03:29:53;;;;;;;14.23;6.15;;;14.20;99.90;;;;;;6308164;22;20017;-90
2023/05/25 03:32:18;;;;;;;18.17;6.57;;;14.20;99.90;;;;;;6308376;22;20036;-91
2023/05/25 03:34:44;;;;;;;17.35;5.93;;;14.20;99.90;;;;;;6308499;22;20015;-91
2023/05/25 03:37:11;;;;;;;16.17;5.35;;;14.20;99.90;;;;;;6308542;22;20381;-91
2023/05/25 03:39:37;;;;;;;14.75;5.80;;;14.20;99.90;;;;;;6308161;22;20008;-91
2023/05/25 03:42:03;;;;;;;20.50;6.60;;;14.20;99.90;;;;;;6308571;22;20072;-93
2023/05/25 03:44:28;;;;;;;16.55;5.88;;;14.20;99.90;;;;;;6308391;22;20018;-92
2023/05/25 03:46:54;;;;;;;15.82;5.53;;;14.10;99.90;;;;;;6310350;22;20284;-92
2023/05/25 03:49:20;;;;;;;13.18;5.32;;;14.20;99.90;;;;;;6315758;22;20013;-91
2023/05/25 03:51:45;;;;;;;15.02;5.88;;;14.20;99.90;;;;;;6308624;22;20050;-91
2023/05/25 03:54:11;;;;;;;16.00;5.47;;;14.20;99.90;;;;;;6308336;22;20068;-92
2023/05/25 03:56:37;;;;;;;16.98;5.70;;;14.20;99.90;;;;;;6322857;22;20010;-92
2023/05/25 03:59:03;;;;;;;20.27;6.30;;;14.20;99.90;;;;;;6326403;22;20047;-91
2023/05/25 04:01:29;;;;;;;19.90;5.38;;;14.20;99.90;;;;;;6323381;22;20003;-91
2023/05/25 04:03:55;;;;;;;16.05;5.80;;;14.20;99.90;;;;;;6317195;22;20395;-91
2023/05/25 04:06:24;;;;;;;15.00;5.90;;;14.20;99.90;;;;;;6321814;22;20026;-91
2023/05/25 04:08:51;;;;;;;18.63;6.68;;;14.20;99.90;;;;;;6318251;22;20033;-89
2023/05/25 04:11:17;;;;;;;23.35;6.45;;;14.20;99.90;;;;;;6313316;22;20000;-90
2023/05/25 04:13:43;;;;;;;18.30;7.28;;;14.20;99.90;;;;;;6316101;22;20092;-89
2023/05/25 04:16:11;;;;;;;23.00;7.80;;;14.10;99.90;;;;;;6311652;22;20007;-90
2023/05/25 04:18:36;;;;;;;18.05;7.15;;;14.10;99.90;;;;;;6311221;22;20082;-90
2023/05/25 04:21:02;;;;;;;19.10;7.50;;;14.10;99.90;;;;;;6310528;22;20437;-89
2023/05/25 04:23:28;;;;;;;22.63;7.50;;;14.00;99.90;;;;;;6310052;22;20037;-89
2023/05/25 04:25:54;;;;;;;20.95;8.80;;;14.00;99.90;;;;;;6309629;22;20003;-90
2023/05/25 04:28:19;;;;;;;20.23;6.97;;;14.00;99.90;;;;;;6309162;22;20039;-90
2023/05/25 04:30:46;;;;;;;19.40;7.55;;;14.00;99.90;;;;;;6309865;22;20011;-89
2023/05/25 04:33:13;;;;;;;22.40;7.50;;;14.00;99.90;;;;;;6308818;22;20030;-90
2023/05/25 04:35:41;;;;;;;20.77;7.32;;;14.00;99.90;;;;;;6309839;22;20035;-88
2023/05/25 04:38:07;;;;;;;20.05;7.93;;;14.00;99.90;;;;;;6309397;22;20071;-89
2023/05/25 04:40:34;;;;;;;23.92;6.93;;;13.90;99.90;;;;;;6308359;22;20014;-89
2023/05/25 04:43:00;;;;;;;16.60;7.03;;;13.90;99.90;;;;;;6308836;22;20447;-88
2023/05/25 04:45:28;;;;;;;22.17;7.15;;;13.90;99.90;;;;;;6310699;22;20445;-89
2023/05/25 04:47:55;;;;;;;15.60;6.88;;;13.90;99.90;;;;;;6309374;22;20007;-90
2023/05/25 04:50:21;;;;;;;18.65;5.88;;;13.80;99.90;;;;;;6309367;22;20060;-90
2023/05/25 04:52:46;;;;;;;17.17;5.20;;;13.80;99.90;;;;;;6308892;22;20086;-91
2023/05/25 04:55:12;;;;;;;21.58;5.43;;;13.80;99.90;;;;;;6308187;22;20480;-90
2023/05/25 04:57:38;;;;;;;19.10;5.10;;;13.70;99.90;;;;;;6308393;22;20049;-91
2023/05/25 05:00:05;;;;;;;15.68;5.15;;;13.80;99.90;;;;;;6308214;22;20084;-91
2023/05/25 05:02:31;;;;;;;14.02;4.60;;;13.70;99.90;;;;;;6308800;22;20523;-90
2023/05/25 05:04:56;;;;;;;16.92;4.80;;;13.70;99.90;;;;;;6308781;22;20021;-89
2023/05/25 05:07:22;;;;;;;16.02;4.45;;;13.70;99.90;;;;;;6308398;22;20082;-91
2023/05/25 05:09:48;;;;;;;15.13;4.80;;;13.70;99.90;;;;;;6308218;22;20007;-91
2023/05/25 05:12:14;;;;;;;16.50;5.20;;;13.70;99.90;;;;;;6308237;22;20010;-91
2023/05/25 05:14:40;;;;;;;16.20;4.82;;;13.70;99.90;;;;;;6308987;22;20015;-91
2023/05/25 05:17:06;;;;;;;13.32;4.65;;;13.80;99.90;;;;;;6309139;22;20064;-92
2023/05/25 05:19:32;;;;;;;15.35;4.28;;;13.80;99.90;;;;;;6308171;22;20007;-90
2023/05/25 05:21:58;;;;;;;16.95;4.40;;;13.80;99.90;;;;;;6307814;22;20007;-91
2023/05/25 05:24:24;;;;;;;17.50;4.53;;;13.80;99.90;;;;;;6308457;22;19995;-91
2023/05/25 05:26:50;;;;;;;13.43;4.18;;;13.80;99.90;;;;;;6307997;22;20023;-90
2023/05/25 05:29:16;;;;;;;15.18;4.40;;;13.80;99.90;;;;;;6308611;22;20004;-90
2023/05/25 05:31:42;;;;;;;17.58;4.60;;;13.80;99.90;;;;;;6308398;22;20084;-91
2023/05/25 05:34:08;;;;;;;20.77;4.03;;;13.80;99.90;;;;;;6307930;22;20386;-91
2023/05/25 05:36:33;;;;;;;14.20;4.20;;;13.70;99.90;;;;;;6308425;22;19999;-90
2023/05/25 05:38:59;;;;;;;14.85;4.95;;;13.70;99.90;;;;;;6307771;22;20007;-91
2023/05/25 05:41:26;;;;;;;13.95;4.03;;;13.80;99.90;;;;;;6308781;22;20039;-91
2023/05/25 05:43:52;;;;;;;10.80;4.53;;;13.80;99.90;;;;;;6308418;22;20004;-90
2023/05/25 05:46:17;;;;;;;11.70;4.15;;;13.90;99.90;;;;;;6309825;22;20065;-92
2023/05/25 05:48:43;;;;;;;15.77;3.78;;;13.90;99.90;;;;;;6308174;22;20060;-91
2023/05/25 05:51:10;;;;;;;16.40;4.90;;;14.00;99.90;;;;;;6307620;22;20004;-92
2023/05/25 05:53:36;;;;;;;17.63;4.75;;;14.00;99.90;;;;;;6308446;22;20094;-92
2023/05/25 05:56:02;;;;;;;12.48;4.10;;;14.00;99.90;;;;;;6307061;22;20046;-93
2023/05/25 05:58:29;;;;;;;13.98;4.32;;;14.00;99.90;;;;;;6308162;22;20003;-93
2023/05/25 06:00:55;;;;;;;20.08;4.68;;;14.00;99.90;;;;;;6307381;22;20003;-92
2023/05/25 06:03:21;;;;;;;16.98;4.50;;;14.00;99.90;;;;;;6308332;22;20026;-92
2023/05/25 06:05:47;;;;;;;18.88;4.57;;;14.00;99.90;;;;;;6308226;22;20011;-92
2023/05/25 06:08:13;;;;;;;15.55;5.22;;;14.10;99.90;;;;;;6310471;22;20029;-91
2023/05/25 06:10:39;;;;;;;13.60;4.63;;;14.10;99.90;;;;;;6309252;22;20422;-92
2023/05/25 06:13:08;;;;;;;13.48;4.47;;;14.10;99.90;;;;;;6309391;22;20068;-91
2023/05/25 06:15:34;;;;;;;13.95;4.53;;;14.10;99.90;;;;;;6313646;22;20022;-91
2023/05/25 06:18:00;;;;;;;17.35;4.63;;;14.20;99.90;;;;;;6311674;22;20015;-90
2023/05/25 06:20:26;;;;;;;13.30;4.97;;;14.20;99.90;;;;;;6311446;22;20011;-90
2023/05/25 06:22:52;;;;;;;20.08;5.88;;;14.30;99.90;;;;;;6313349;22;20003;-92
2023/05/25 06:25:19;;;;;;;16.60;5.53;;;14.30;99.90;;;;;;6312578;22;20061;-92
2023/05/25 06:27:45;;;;;;;13.23;5.40;;;14.30;99.90;;;;;;6312349;22;20022;-93
2023/05/25 06:30:11;;;;;;;15.63;5.43;;;14.40;99.90;;;;;;6316263;22;20003;-92
2023/05/25 06:32:36;;;;;;;19.40;5.88;;;14.40;99.90;;;;;;6310051;22;20025;-91
2023/05/25 06:35:03;;;;;;;16.92;7.13;;;14.50;99.90;;;;;;6308375;22;20011;-92
2023/05/25 06:37:36;;;;;;;15.52;5.55;;;14.60;99.90;;;;;;6308405;22;20010;-92
2023/05/25 06:40:08;;;;;;;21.08;6.65;;;14.60;99.90;;;;;;6310885;22;20030;-92
2023/05/25 06:42:34;;;;;;;18.15;5.32;;;14.70;99.90;;;;;;6310773;22;20007;-92
2023/05/25 06:45:00;;;;;;;18.90;7.07;;;14.80;99.90;;;;;;6309109;22;20148;-92
2023/05/25 06:47:26;;;;;;;17.80;6.32;;;14.80;99.90;;;;;;6307077;22;20007;-93
2023/05/25 06:49:51;;;;;;;14.77;5.00;;;14.90;99.90;;;;;;6308923;22;20007;-92
2023/05/25 06:52:17;;;;;;;24.20;7.13;;;14.90;99.90;;;;;;6308132;22;20014;-92
2023/05/25 06:54:43;;;;;;;16.08;6.07;;;15.00;99.90;;;;;;6309413;22;20065;-92
2023/05/25 06:57:08;;;;;;;19.02;6.47;;;15.00;99.90;;;;;;6311941;22;20008;-93
2023/05/25 06:59:34;;;;;;;22.52;6.47;;;15.10;99.90;;;;;;6311766;22;20034;-91
2023/05/25 07:01:59;;;;;;;18.10;6.70;;;15.10;99.90;;;;;;6309162;22;20005;-92
2023/05/25 07:04:26;;;;;;;23.45;6.60;;;15.20;99.90;;;;;;6309746;22;20085;-92
2023/05/25 07:06:52;;;;;;;16.25;5.90;;;15.20;99.90;;;;;;6310972;22;20439;-91
2023/05/25 07:09:17;;;;;;;19.98;5.22;;;15.30;99.90;;;;;;6309548;22;20007;-92
2023/05/25 07:11:43;;;;;;;15.27;4.68;;;15.40;99.90;;;;;;6309825;22;19999;-91
2023/05/25 07:14:09;;;;;;;19.48;5.40;;;15.50;99.90;;;;;;6310728;22;20007;-91
2023/05/25 07:16:35;;;;;;;15.05;4.60;;;15.50;99.90;;;;;;6310176;22;20011;-92
2023/05/25 07:19:01;;;;;;;13.18;4.00;;;15.60;99.90;;;;;;6311815;22;20068;-91
2023/05/25 07:21:30;;;;;;;13.95;4.93;;;15.60;99.90;;;;;;6324467;22;20057;-92
2023/05/25 07:23:56;;;;;;;15.30;4.30;;;15.70;99.90;;;;;;6315105;22;20003;-91
2023/05/25 07:26:22;;;;;;;15.40;4.38;;;15.70;99.90;;;;;;6312319;22;20007;-92
2023/05/25 07:28:47;;;;;;;14.32;3.53;;;15.80;99.90;;;;;;6311048;22;20011;-92
2023/05/25 07:31:13;;;;;;;14.27;3.85;;;15.80;99.90;;;;;;6309572;22;20484;-91
2023/05/25 07:33:39;;;;;;;12.23;3.65;;;15.80;99.90;;;;;;6310639;22;20090;-90
2023/05/25 07:36:05;;;;;;;18.48;3.78;;;15.80;99.90;;;;;;6310040;22;20410;-91
2023/05/25 07:38:30;;;;;;;13.88;3.72;;;15.80;99.90;;;;;;6308868;22;19999;-91
2023/05/25 07:40:57;;;;;;;13.85;4.07;;;15.80;99.50;;;;;;6288836;22;20124;-93
2023/05/25 07:43:23;;;;;;;14.57;4.35;;;15.80;99.10;;;;;;6311517;22;20003;-91
2023/05/25 07:45:49;;;;;;;17.23;3.92;;;15.80;98.90;;;;;;6311612;22;20008;-91
2023/05/25 07:48:15;;;;;;;16.85;4.18;;;15.90;98.50;;;;;;6309364;22;20410;-91
2023/05/25 07:50:40;;;;;;;12.10;3.80;;;15.90;98.10;;;;;;6311450;22;20014;-91
2023/05/25 07:53:06;;;;;;;13.13;3.72;;;16.00;97.90;;;;;;6314544;22;19999;-92
2023/05/25 07:55:31;;;;;;;15.40;3.60;;;16.00;97.50;;;;;;6309712;22;20027;-89
2023/05/25 07:57:57;;;;;;;17.58;4.20;;;16.10;97.10;;;;;;6315398;22;20022;-90
2023/05/25 08:00:23;;;;;;;18.50;4.28;;;16.10;96.90;;;;;;6322074;22;20014;-89
2023/05/25 08:02:49;;;;;;;17.50;3.88;;;16.20;96.50;;;;;;6322118;22;20003;-89
2023/05/25 08:05:14;;;;;;;15.13;4.10;;;16.30;96.20;;;;;;6320423;22;20426;-90
2023/05/25 08:07:40;;;;;;;15.82;4.00;;;16.30;95.70;;;;;;6321190;22;20001;-90
2023/05/25 08:10:10;;;;;;;13.25;4.07;;;16.30;95.00;;;;;;6316269;22;20029;-89
2023/05/25 08:12:35;;;;;;;16.13;3.87;;;16.40;94.70;;;;;;6316608;22;20319;-89
2023/05/25 08:15:01;;;;;;;13.10;2.85;;;16.40;94.00;;;;;;6315474;22;20261;-90
2023/05/25 08:17:27;;;;;;;13.05;3.08;;;16.50;93.70;;;;;;6308798;22;20009;-90
2023/05/25 08:19:56;;;;;;;14.80;3.08;;;16.50;93.00;;;;;;6308042;22;20014;-90
2023/05/25 08:22:22;;;;;;;9.75;3.13;;;16.60;92.40;;;;;;6309115;22;20006;-91
2023/05/25 08:24:47;;;;;;;8.93;3.38;;;16.80;92.00;;;;;;6307460;22;20007;-91
2023/05/25 08:27:13;;;;;;;7.35;2.80;;;16.90;91.40;;;;;;6307275;22;20046;-91
2023/05/25 08:29:39;;;;;;;6.38;3.05;;;17.00;91.00;;;;;;6307586;22;20035;-90
2023/05/25 08:32:05;;;;;;;9.18;2.67;;;17.00;90.50;;;;;;6307868;22;20034;-90
2023/05/25 08:34:31;;;;;;;12.35;3.22;;;17.10;89.80;;;;;;6307813;22;20101;-90
2023/05/25 08:36:59;;;;;;;10.88;3.15;;;17.10;89.00;;;;;;6308358;22;20484;-89
2023/05/25 08:39:25;;;;;;;13.80;3.42;;;17.20;88.60;;;;;;6310419;22;20097;-90
2023/05/25 08:41:51;;;;;;;9.90;3.17;;;17.20;88.40;;;;;;6315670;22;20015;-89
2023/05/25 08:44:18;;;;;;;16.77;4.53;;;17.30;88.60;;;;;;6308974;22;20007;-88
2023/05/25 08:46:48;;;;;;;22.77;4.78;;;17.50;88.40;;;;;;6314305;22;20004;-90
2023/05/25 08:49:14;;;;;;;12.32;4.15;;;17.60;88.50;;;;;;6318571;22;20027;-88
2023/05/25 08:51:51;;;;;;;15.70;3.78;;;17.70;88.30;;;;;;6330505;22;20003;-87
2023/05/25 08:54:21;;;;;;;13.93;4.05;;;17.70;87.90;;;;;;6329475;22;20042;-91
2023/05/25 08:56:54;;;;;;;13.45;3.53;;;17.70;87.30;;;;;;6312599;22;19999;-90
2023/05/25 08:59:34;;;;;;;9.00;3.00;;;17.70;87.10;;;;;;6318402;22;20432;-90
2023/05/25 09:02:22;;;;;;;9.20;3.08;;;17.90;86.40;;;;;;6312625;22;20003;-90
2023/05/25 09:04:48;;;;;;;20.10;5.07;;;18.00;85.60;;;;;;6283774;22;19999;-90
2023/05/25 09:07:14;;;;;;;9.10;3.05;;;18.10;85.10;;;;;;6318107;22;20019;-90
2023/05/25 09:09:41;;;;;;;10.60;3.17;;;18.30;84.60;;;;;;6317417;22;19999;-92
2023/05/25 09:12:07;;;;;;;14.82;3.78;;;18.40;83.70;;;;;;6309523;22;20098;-91
2023/05/25 09:14:36;;;;;;;9.90;3.72;;;18.50;82.50;;;;;;6308435;22;20023;-91
2023/05/25 09:17:02;;;;;;;13.98;4.82;;;18.60;81.90;;;;;;6312364;22;20003;-91
2023/05/25 09:19:27;;;;;;;12.18;3.92;;;18.70;81.40;;;;;;6308312;22;19999;-91
2023/05/25 09:21:53;;;;;;;11.52;3.50;;;18.80;81.40;;;;;;6308151;22;20100;-90
2023/05/25 09:24:21;;;;;;;13.38;4.00;;;18.90;81.20;;;;;;6309913;22;20008;-92
2023/05/25 09:26:48;;;;;;;23.20;4.18;;;19.10;80.90;;;;;;6308458;22;20330;-91
2023/05/25 09:29:15;;;;;;;13.90;4.05;;;19.20;79.90;;;;;;6308298;22;20042;-91
2023/05/25 09:31:41;;;;;;;13.52;3.92;;;19.30;79.00;;;;;;6307218;22;20472;-91
2023/05/25 09:34:13;;;;;;;12.00;3.75;;;19.40;79.20;;;;;;6308091;22;20015;-91
2023/05/25 09:36:42;;;;;;;14.10;4.15;;;19.60;78.80;;;;;;6308429;22;20003;-92
2023/05/25 09:39:09;;;;;;;11.15;3.80;;;19.70;77.70;;;;;;6307974;22;20086;-92
2023/05/25 09:41:36;;;;;;;11.93;3.58;;;19.80;77.00;;;;;;6308922;22;20000;-91
2023/05/25 09:44:03;;;;;;;18.52;4.25;;;19.80;76.60;;;;;;6309094;22;20316;-91
2023/05/25 09:46:31;;;;;;;12.38;3.85;;;19.90;76.50;;;;;;6309834;22;19999;-91
2023/05/25 09:48:57;;;;;;;12.48;3.95;;;20.10;76.40;;;;;;6309134;22;20014;-92
2023/05/25 09:51:23;;;;;;;18.20;3.80;;;20.30;75.70;;;;;;6309960;22;20003;-90
2023/05/25 09:53:50;;;;;;;16.13;3.33;;;20.40;75.20;;;;;;6309995;22;20064;-91
2023/05/25 09:56:16;;;;;;;14.98;3.95;;;20.70;75.80;;;;;;6308785;22;20102;-91
2023/05/25 09:58:41;;;;;;;12.82;3.35;;;20.80;74.00;;;;;;6308065;22;19999;-92
2023/05/25 10:01:07;;;;;;;12.73;3.30;;;20.90;72.50;;;;;;6308042;22;20018;-92
2023/05/25 10:03:33;;;;;;;12.85;3.47;;;21.00;71.50;;;;;;6307806;22;20006;-93
2023/05/25 10:05:59;;;;;;;10.73;3.38;;;21.00;71.00;;;;;;6307789;22;20003;-91
2023/05/25 10:08:26;;;;;;;10.43;3.53;;;21.10;69.90;;;;;;6307852;22;20007;-92
2023/05/25 10:10:52;;;;;;;14.18;3.75;;;21.10;69.30;;;;;;6307428;22;20011;-92
2023/05/25 10:13:23;;;;;;;11.23;2.90;;;21.10;69.30;;;;;;6307139;22;20098;-92
2023/05/25 10:15:53;;;;;;;8.82;2.90;;;21.20;68.60;;;;;;6307803;22;20007;-91
2023/05/25 10:18:24;;;;;;;9.02;3.65;;;21.40;68.00;;;;;;6310843;22;20004;-91
2023/05/25 10:20:56;;;;;;;10.63;3.75;;;21.40;67.60;;;;;;6323123;22;20233;-91
2023/05/25 10:23:23;;;;;;;13.13;2.72;;;21.40;68.10;;;;;;6309451;22;20011;-92
2023/05/25 10:25:52;;;;;;;10.10;3.35;;;21.40;67.10;;;;;;6308632;22;20027;-90
2023/05/25 10:28:24;;;;;;;6.82;3.00;;;21.40;67.00;;;;;;6308335;22;20051;-91
2023/05/25 10:30:50;;;;;;;11.00;3.28;;;21.50;66.70;;;;;;6308774;22;19999;-91
2023/05/25 10:33:17;;;;;;;10.40;3.22;;;21.50;65.90;;;;;;6308382;22;20010;-91
2023/05/25 10:35:45;;;;;;;9.90;3.60;;;21.60;65.40;;;;;;6309644;22;20098;-91
2023/05/25 10:38:12;;;;;;;11.38;3.42;;;21.60;65.10;;;;;;6308353;22;20003;-92
2023/05/25 10:40:37;;;;;;;10.75;3.30;;;21.80;65.10;;;;;;6307860;22;20007;-90
2023/05/25 10:43:05;;;;;;;11.23;3.58;;;22.00;64.90;;;;;;6307604;22;20006;-90
2023/05/25 10:45:31;;;;;;;10.50;2.95;;;22.20;64.70;;;;;;6308096;22;20004;-91
2023/05/25 10:47:57;;;;;;;15.40;3.63;;;22.20;64.30;;;;;;6307385;22;20007;-92
2023/05/25 10:50:25;;;;;;;10.73;3.55;;;22.30;64.20;;;;;;6308384;22;20007;-92
2023/05/25 10:53:06;;;;;;;9.23;3.55;;;22.50;63.80;;;;;;6307536;22;20045;-90
2023/05/25 10:56:04;;;;;;;9.98;3.70;;;22.50;63.40;;;;;;6307775;22;20025;-90
2023/05/25 10:58:31;;;;;;;8.38;3.40;;;22.60;63.60;;;;;;6295817;22;20084;-90
2023/05/25 11:01:09;;;;;;;10.70;3.63;;;22.60;63.70;;;;;;6306552;22;20013;-90
2023/05/25 11:03:46;;;;;;;10.85;3.58;;;22.70;63.60;;;;;;6307479;22;20014;-90
2023/05/25 11:06:21;;;;;;;13.63;3.50;;;22.90;62.50;;;;;;6308864;22;19999;-90
2023/05/25 11:08:50;;;;;;;11.15;3.38;;;22.90;61.50;;;;;;6306702;22;20082;-90
2023/05/25 11:11:16;;;;;;;13.07;3.55;;;22.90;61.40;;;;;;6306016;22;19995;-90
2023/05/25 11:13:49;;;;;;;8.18;3.00;;;22.70;61.40;;;;;;6305972;22;20003;-90
2023/05/25 11:16:20;;;;;;;10.05;3.03;;;22.60;61.90;;;;;;6305140;22;20490;-90
2023/05/25 11:18:57;;;;;;;11.35;3.80;;;22.50;62.10;;;;;;6304782;22;20026;-90
2023/05/25 11:21:26;;;;;;;10.38;3.20;;;22.30;62.30;;;;;;6305178;22;20086;-89
2023/05/25 11:23:52;;;;;;;9.98;3.05;;;22.30;62.60;;;;;;6304727;22;20000;-89
2023/05/25 11:26:26;;;;;;;9.80;3.10;;;22.20;62.60;;;;;;6304682;22;20007;-89
2023/05/25 11:28:53;;;;;;;9.65;3.75;;;22.30;62.50;;;;;;6305436;22;20453;-89
2023/05/25 11:31:29;;;;;;;11.30;3.30;;;22.50;62.40;;;;;;6305608;22;20418;-90
2023/05/25 11:34:00;;;;;;;11.93;3.20;;;22.70;61.70;;;;;;6305991;22;20019;-89
2023/05/25 11:36:30;;;;;;;11.23;3.70;;;22.90;61.20;;;;;;6305509;22;20011;-90
2023/05/25 11:38:56;;;;;;;7.05;2.63;;;23.10;61.00;;;;;;6306768;22;19999;-89
2023/05/25 11:41:22;;;;;;;7.43;3.05;;;23.30;60.50;;;;;;6306161;22;20366;-90
2023/05/25 11:43:52;;;;;;;8.95;3.03;;;23.50;59.90;;;;;;6307623;22;20427;-91
2023/05/25 11:46:23;;;;;;;7.22;2.72;;;23.40;59.50;;;;;;6307207;22;20094;-90
2023/05/25 11:48:54;;;;;;;9.20;3.03;;;23.20;59.40;;;;;;6307735;22;20027;-90
2023/05/25 11:51:21;;;;;;;8.93;2.58;;;23.30;59.80;;;;;;6306924;22;20096;-90
2023/05/25 11:53:47;;;;;;;9.95;3.38;;;23.30;59.80;;;;;;6306796;22;19999;-90
2023/05/25 11:56:15;;;;;;;7.25;3.00;;;23.40;59.80;;;;;;6306332;22;20018;-90
2023/05/25 11:58:43;;;;;;;6.53;2.55;;;23.50;59.30;;;;;;6306759;22;20010;-90
2023/05/25 12:01:15;;;;;;;5.55;2.70;;;23.50;59.50;;;;;;6306708;22;20413;-90
2023/05/25 12:03:42;;;;;;;7.60;2.65;;;23.40;59.90;;;;;;6307103;22;19999;-90
2023/05/25 12:06:08;;;;;;;6.63;3.05;;;23.20;59.30;;;;;;6307712;22;20011;-91
2023/05/25 12:08:35;;;;;;;8.90;3.33;;;23.00;59.30;;;;;;6313207;22;20034;-90
2023/05/25 12:11:01;;;;;;;16.08;3.13;;;23.00;59.90;;;;;;6320439;22;20003;-90
2023/05/25 12:13:27;;;;;;;11.80;3.03;;;23.10;60.20;;;;;;6318936;22;19999;-90
2023/05/25 12:15:58;;;;;;;10.88;2.83;;;23.10;59.70;;;;;;6316042;22;20054;-89
2023/05/25 12:18:27;;;;;;;6.70;2.80;;;23.20;59.50;;;;;;6315238;22;20061;-90
2023/05/25 12:20:54;;;;;;;9.43;2.58;;;23.40;59.60;;;;;;6315469;22;20003;-91
2023/05/25 12:23:23;;;;;;;11.82;2.67;;;23.60;59.40;;;;;;6316139;22;20082;-90
2023/05/25 12:26:03;;;;;;;12.73;2.85;;;23.80;58.90;;;;;;6313121;22;20420;-90
2023/05/25 12:28:29;;;;;;;9.52;3.22;;;23.70;58.70;;;;;;6307555;22;20012;-90
2023/05/25 12:30:56;;;;;;;8.25;2.72;;;23.50;58.50;;;;;;6307211;22;20045;-90
2023/05/25 12:33:21;;;;;;;6.78;2.22;;;23.20;58.30;;;;;;6306932;22;20007;-89
2023/05/25 12:35:49;;;;;;;9.95;3.50;;;23.00;58.10;;;;;;6306336;22;20011;-90
2023/05/25 12:38:17;;;;;;;7.05;2.42;;;22.80;58.20;;;;;;6307864;22;20073;-91